GW0809 Weather Reports


time (UTC)temp
C
wind
direction
speed
KPH
gust
KPH
rain 1hr
cm
rain 24hr
cm
rain mn
cm
humidity
%
barometer
mb
20260503180554 24 5 0.0 8.0 0.00 0.00 0.00 43 1013.1
20260503180053 23 11 1.6 9.7 0.00 0.00 0.00 43 1013.2
20260503175553 23 125 3.2 9.7 0.00 0.00 0.00 43 1013.3
20260503175056 23 0 1.6 6.4 0.00 0.00 0.00 43 1013.5
20260503174554 23 0 1.6 6.4 0.00 0.00 0.00 44 1013.5
20260503174053 23 121 3.2 8.0 0.00 0.00 0.00 44 1013.5
20260503173553 22 0 1.6 8.0 0.00 0.00 0.00 46 1013.6
20260503173100 22 18 1.6 6.4 0.00 0.00 0.00 46 1013.6
20260503172553 22 140 1.6 9.7 0.00 0.00 0.00 47 1013.7
20260503172052 21 63 1.6 11.3 0.00 0.00 0.00 50 1013.7
20260503171553 21 134 4.8 11.3 0.00 0.00 0.00 49 1013.8
20260503171053 21 15 1.6 9.7 0.00 0.00 0.00 50 1013.8
20260503170553 21 19 3.2 9.7 0.00 0.00 0.00 50 1013.8
20260503150555 13 138 0.0 4.8 0.00 0.00 0.00 82 1014.3
20260503131058 8 0 0.0 0.0 0.00 0.00 0.00 93 1014.2
20260503130555 8 0 0.0 0.0 0.00 0.00 0.00 93 1014.1
20260503110556 10 0 0.0 1.6 0.00 0.00 0.00 91 1014.1
20260503081628 12 0 0.0 1.6 0.00 0.00 0.00 88 1013.8
20260503081054 12 0 0.0 1.6 0.00 0.00 0.00 88 1013.9
20260503080556 12 261 0.0 1.6 0.00 0.00 0.00 89 1013.9
20260503080117 12 0 0.0 1.6 0.00 0.00 0.00 88 1013.9
20260503072555 12 0 0.0 0.0 0.00 0.00 0.00 85 1013.7
20260503072056 12 0 0.0 3.2 0.00 0.00 0.00 85 1013.7
20260503071555 13 0 0.0 3.2 0.00 0.00 0.00 84 1013.8
20260503071055 13 243 0.0 1.6 0.00 0.00 0.00 85 1013.7
20260503070558 13 0 0.0 1.6 0.00 0.00 0.00 84 1013.8
20260503055054 15 0 0.0 0.0 0.00 0.00 0.00 81 1013.3
20260503054558 15 0 0.0 0.0 0.00 0.00 0.00 81 1013.3
20260503054057 15 0 0.0 0.0 0.00 0.00 0.00 81 1013.3
20260503053555 15 0 0.0 0.0 0.00 0.00 0.00 81 1013.3
20260503053054 15 0 0.0 0.0 0.00 0.00 0.00 81 1013.3
20260503052555 15 0 0.0 0.0 0.00 0.00 0.00 79 1013.4
20260503052056 15 0 0.0 0.0 0.00 0.00 0.00 80 1013.3
20260503051552 15 0 0.0 0.0 0.00 0.00 0.00 78 1013.4
20260503051054 16 0 0.0 0.0 0.00 0.00 0.00 78 1013.4
20260503050557 16 0 0.0 0.0 0.00 0.00 0.00 78 1013.4
20260503050057 16 0 0.0 0.0 0.00 0.00 0.00 78 1013.4
20260503045554 16 0 0.0 0.0 0.00 0.00 0.00 77 1013.4
20260503045054 16 0 0.0 0.0 0.00 0.00 0.00 76 1013.4
20260503044604 16 0 0.0 0.0 0.00 0.00 0.00 76 1013.3
20260503044055 16 0 0.0 0.0 0.00 0.00 0.00 76 1013.3
20260503043555 17 0 0.0 0.0 0.00 0.00 0.00 76 1013.2
20260503043102 17 0 0.0 0.0 0.00 0.00 0.00 76 1013.3
20260503042555 17 0 0.0 0.0 0.00 0.00 0.00 74 1013.2
20260503042055 17 0 0.0 0.0 0.00 0.00 0.00 74 1013.2
20260503041553 17 0 0.0 0.0 0.00 0.00 0.00 73 1013.2
20260503041054 17 0 0.0 0.0 0.00 0.00 0.00 74 1013.1
20260503040554 17 0 0.0 0.0 0.00 0.00 0.00 73 1013.0
20260503040054 18 0 0.0 0.0 0.00 0.00 0.00 73 1013.0
20260503035554 18 0 0.0 0.0 0.00 0.00 0.00 71 1012.9
20260503035054 18 0 0.0 0.0 0.00 0.00 0.00 71 1013.0
20260503034554 18 0 0.0 0.0 0.00 0.00 0.00 70 1012.9
20260503034054 18 0 0.0 0.0 0.00 0.00 0.00 70 1012.9
20260503033554 18 0 0.0 0.0 0.00 0.00 0.00 69 1012.9
20260503033125 18 0 0.0 0.0 0.00 0.00 0.00 69 1012.8
20260503032554 19 0 0.0 0.0 0.00 0.00 0.00 68 1012.7
20260503032055 19 0 0.0 0.0 0.00 0.00 0.00 67 1012.7
20260503031557 20 0 0.0 0.0 0.00 0.00 0.00 67 1012.5
20260503031054 20 0 0.0 0.0 0.00 0.00 0.00 66 1012.6
20260503030558 20 0 0.0 0.0 0.00 0.00 0.00 65 1012.5
20260503030110 20 0 0.0 0.0 0.00 0.00 0.00 63 1012.5
20260503025554 20 0 0.0 0.0 0.00 0.00 0.00 63 1012.5
20260503025054 21 0 0.0 0.0 0.00 0.00 0.00 62 1012.5
20260503024618 21 0 0.0 0.0 0.00 0.00 0.00 61 1012.4
20260503024054 21 0 0.0 0.0 0.00 0.00 0.00 61 1012.5
20260503023555 21 0 0.0 0.0 0.00 0.00 0.00 59 1012.5
20260503023100 22 0 0.0 0.0 0.00 0.00 0.00 58 1012.4
20260503022558 22 0 0.0 0.0 0.00 0.00 0.00 56 1012.5
20260503022055 22 0 0.0 0.0 0.00 0.00 0.00 55 1012.5
20260503021601 22 0 0.0 0.0 0.00 0.00 0.00 54 1012.7
20260503021054 22 0 0.0 0.0 0.00 0.00 0.00 53 1012.6
20260503020557 22 0 0.0 0.0 0.00 0.00 0.00 54 1012.5
20260503020053 23 0 0.0 0.0 0.00 0.00 0.00 53 1012.6
20260503015556 23 0 0.0 1.6 0.00 0.00 0.00 52 1012.7
20260503015054 23 0 0.0 1.6 0.00 0.00 0.00 50 1012.8
20260503014600 23 0 0.0 1.6 0.00 0.00 0.00 50 1012.7
20260503014055 23 0 0.0 1.6 0.00 0.00 0.00 50 1012.8
20260503013556 23 0 0.0 1.6 0.00 0.00 0.00 49 1013.0
20260503013058 23 0 0.0 3.2 0.00 0.00 0.00 47 1013.0
20260503012558 24 0 0.0 3.2 0.00 0.00 0.00 47 1013.0
20260503012100 24 0 0.0 6.4 0.00 0.00 0.00 46 1013.0
20260503011604 24 182 0.0 6.4 0.00 0.00 0.00 46 1013.1
20260503011055 24 0 0.0 6.4 0.00 0.00 0.00 45 1013.1
20260503010555 25 0 0.0 4.8 0.00 0.00 0.00 45 1013.1
20260503010057 25 13 0.0 6.4 0.00 0.00 0.00 44 1013.1
20260503005555 25 113 1.6 6.4 0.00 0.00 0.00 43 1013.1
20260503005055 25 0 1.6 4.8 0.00 0.00 0.00 42 1013.1
20260503004559 26 0 0.0 4.8 0.00 0.00 0.00 41 1013.1
20260503004054 26 0 0.0 4.8 0.00 0.00 0.00 41 1013.2
20260503003554 26 0 0.0 4.8 0.00 0.00 0.00 40 1013.2
20260503003054 26 0 0.0 3.2 0.00 0.00 0.00 42 1013.1
20260503002556 26 184 0.0 3.2 0.00 0.00 0.00 43 1013.1
20260503002054 26 0 0.0 3.2 0.00 0.00 0.00 41 1013.2
20260503001611 26 0 1.6 4.8 0.00 0.00 0.00 41 1013.2
20260503001054 26 198 0.0 4.8 0.00 0.00 0.00 41 1013.3
20260503000556 26 178 0.0 8.0 0.00 0.00 0.00 42 1013.3
20260503000121 26 355 0.0 8.0 0.00 0.00 0.00 41 1013.4
20260502235554 26 0 1.6 8.0 0.00 0.00 0.00 41 1013.4
20260502235054 26 0 0.0 4.8 0.00 0.00 0.00 41 1013.4
20260502234617 25 0 1.6 6.4 0.00 0.00 0.00 43 1013.5
20260502234055 25 0 1.6 8.0 0.00 0.00 0.00 41 1013.5
20260502233556 25 137 1.6 11.3 0.00 0.00 0.00 41 1013.5
20260502233108 25 181 1.6 11.3 0.00 0.00 0.00 41 1013.5
20260502232554 25 173 1.6 8.0 0.00 0.00 0.00 40 1013.6
20260502232054 26 161 0.0 8.0 0.00 0.00 0.00 41 1013.6
20260502231605 25 16 3.2 8.0 0.00 0.00 0.00 41 1013.7
20260502231054 26 207 1.6 6.4 0.00 0.00 0.00 46 1013.6
20260502230554 26 215 1.6 6.4 0.00 0.00 0.00 43 1013.8
20260502230057 26 15 1.6 8.0 0.00 0.00 0.00 45 1013.8
20260502225554 26 171 1.6 8.0 0.00 0.00 0.00 45 1013.8
20260502225054 26 18 3.2 8.0 0.00 0.00 0.00 46 1013.8
20260502224556 26 136 1.6 8.0 0.00 0.00 0.00 48 1013.9
20260502224054 26 194 1.6 11.3 0.00 0.00 0.00 48 1013.9
20260502223555 25 287 1.6 11.3 0.00 0.00 0.00 49 1014.0
20260502223052 25 5 0.0 8.0 0.00 0.00 0.00 50 1014.0
20260502222553 25 0 1.6 8.0 0.00 0.00 0.00 49 1014.0
20260502222053 25 213 1.6 6.4 0.00 0.00 0.00 52 1014.1
20260502221602 25 0 1.6 8.0 0.00 0.00 0.00 52 1014.2
20260502221057 25 178 1.6 8.0 0.00 0.00 0.00 51 1014.2
20260502220555 25 123 1.6 8.0 0.00 0.00 0.00 51 1014.4
20260502220056 25 229 3.2 9.7 0.00 0.00 0.00 52 1014.3
20260502215555 25 59 3.2 9.7 0.00 0.00 0.00 51 1014.4
20260502215054 25 169 1.6 6.4 0.00 0.00 0.00 52 1014.5
20260502214607 25 167 1.6 11.3 0.00 0.00 0.00 52 1014.6
20260502214054 25 25 3.2 11.3 0.00 0.00 0.00 53 1014.7
20260502213557 25 257 4.8 11.3 0.00 0.00 0.00 50 1014.7
20260502213111 25 188 1.6 8.0 0.00 0.00 0.00 52 1014.8
20260502212554 25 161 1.6 8.0 0.00 0.00 0.00 52 1014.7
20260502212053 25 144 1.6 12.9 0.00 0.00 0.00 55 1014.9
20260502211556 25 0 1.6 12.9 0.00 0.00 0.00 53 1014.9
20260502211054 25 292 1.6 11.3 0.00 0.00 0.00 53 1015.0
20260502210553 25 217 3.2 11.3 0.00 0.00 0.00 51 1014.9
20260502210053 25 214 1.6 9.7 0.00 0.00 0.00 52 1014.9
20260502205554 25 163 1.6 8.0 0.00 0.00 0.00 50 1015.0
20260502205054 25 0 3.2 8.0 0.00 0.00 0.00 44 1015.0
20260502204557 25 30 1.6 8.0 0.00 0.00 0.00 45 1015.1
20260502204054 25 15 3.2 8.0 0.00 0.00 0.00 45 1015.1
20260502203555 25 179 1.6 8.0 0.00 0.00 0.00 47 1015.1
20260502203100 25 138 1.6 8.0 0.00 0.00 0.00 47 1015.2
20260502202554 25 0 3.2 9.7 0.00 0.00 0.00 50 1015.2
20260502202054 24 0 1.6 9.7 0.00 0.00 0.00 51 1015.3
20260502201556 24 221 1.6 9.7 0.00 0.00 0.00 45 1015.3
20260502201054 24 213 1.6 8.0 0.00 0.00 0.00 46 1015.3
20260502200557 24 192 1.6 6.4 0.00 0.00 0.00 46 1015.4
20260502200053 24 234 0.0 8.0 0.00 0.00 0.00 46 1015.5
20260502195557 23 195 1.6 8.0 0.00 0.00 0.00 44 1015.5
20260502195056 23 309 1.6 12.9 0.00 0.00 0.00 46 1015.6
20260502194555 23 280 4.8 12.9 0.00 0.00 0.00 49 1015.5
20260502194055 23 5 1.6 12.9 0.00 0.00 0.00 46 1015.5
20260502193554 23 40 3.2 12.9 0.00 0.00 0.00 45 1015.6
20260502193053 23 49 3.2 12.9 0.00 0.00 0.00 45 1015.7
20260502192556 23 355 1.6 9.7 0.00 0.00 0.00 49 1015.7
20260502192053 22 259 3.2 9.7 0.00 0.00 0.00 48 1015.7
20260502191555 22 12 3.2 12.9 0.00 0.00 0.00 48 1015.7
20260502191053 22 52 3.2 12.9 0.00 0.00 0.00 49 1015.6
20260502190554 22 68 3.2 9.7 0.00 0.00 0.00 51 1015.7
20260502190055 22 26 1.6 9.7 0.00 0.00 0.00 51 1015.8
20260502185554 22 355 1.6 12.9 0.00 0.00 0.00 52 1015.8
20260502185054 21 95 3.2 12.9 0.00 0.00 0.00 51 1015.9
20260502184554 21 30 3.2 11.3 0.00 0.00 0.00 51 1015.9
20260502184054 21 360 3.2 16.1 0.00 0.00 0.00 50 1016.0
20260502183554 21 20 3.2 16.1 0.00 0.00 0.00 53 1016.1
20260502183058 21 28 3.2 12.9 0.00 0.00 0.00 53 1016.2
20260502182554 21 24 1.6 11.3 0.00 0.00 0.00 54 1016.2
20260502182053 21 23 4.8 12.9 0.00 0.00 0.00 54 1016.3
20260502181557 20 321 3.2 12.9 0.00 0.00 0.00 55 1016.3
20260502181057 20 355 3.2 11.3 0.00 0.00 0.00 56 1016.3